sensor_id;sensor_type;location;lat;lon;timestamp;P1;durP1;ratioP1;P2;durP2;ratioP2
17345;SDS011;8790;53.590;10.002;2023-05-14T00:02:02;8.67;;;7.30;;
17345;SDS011;8790;53.590;10.002;2023-05-14T00:04:35;10.53;;;7.23;;
17345;SDS011;8790;53.590;10.002;2023-05-14T00:07:07;8.10;;;7.30;;
17345;SDS011;8790;53.590;10.002;2023-05-14T00:09:39;10.80;;;7.23;;
17345;SDS011;8790;53.590;10.002;2023-05-14T00:12:11;9.70;;;7.23;;
17345;SDS011;8790;53.590;10.002;2023-05-14T00:14:43;7.80;;;6.97;;
17345;SDS011;8790;53.590;10.002;2023-05-14T00:17:14;9.17;;;6.80;;
17345;SDS011;8790;53.590;10.002;2023-05-14T00:19:47;7.93;;;7.13;;
17345;SDS011;8790;53.590;10.002;2023-05-14T00:22:20;7.90;;;7.13;;
17345;SDS011;8790;53.590;10.002;2023-05-14T00:24:52;9.13;;;7.37;;
17345;SDS011;8790;53.590;10.002;2023-05-14T00:27:23;7.80;;;7.00;;
17345;SDS011;8790;53.590;10.002;2023-05-14T00:29:55;7.53;;;6.83;;
17345;SDS011;8790;53.590;10.002;2023-05-14T00:32:27;8.20;;;7.03;;
17345;SDS011;8790;53.590;10.002;2023-05-14T00:35:00;10.07;;;6.90;;
17345;SDS011;8790;53.590;10.002;2023-05-14T00:37:33;8.13;;;6.77;;
17345;SDS011;8790;53.590;10.002;2023-05-14T00:40:06;8.53;;;7.17;;
17345;SDS011;8790;53.590;10.002;2023-05-14T00:42:40;9.07;;;7.03;;
17345;SDS011;8790;53.590;10.002;2023-05-14T00:45:12;7.43;;;6.73;;
17345;SDS011;8790;53.590;10.002;2023-05-14T00:47:44;8.17;;;6.73;;
17345;SDS011;8790;53.590;10.002;2023-05-14T00:50:17;8.03;;;7.23;;
17345;SDS011;8790;53.590;10.002;2023-05-14T00:52:50;7.77;;;7.03;;
17345;SDS011;8790;53.590;10.002;2023-05-14T00:55:21;10.87;;;7.03;;
17345;SDS011;8790;53.590;10.002;2023-05-14T00:57:53;8.23;;;6.73;;
17345;SDS011;8790;53.590;10.002;2023-05-14T01:00:28;8.43;;;7.10;;
17345;SDS011;8790;53.590;10.002;2023-05-14T01:02:59;7.53;;;6.83;;
17345;SDS011;8790;53.590;10.002;2023-05-14T01:05:35;7.57;;;6.80;;
17345;SDS011;8790;53.590;10.002;2023-05-14T01:08:16;8.70;;;7.07;;
17345;SDS011;8790;53.590;10.002;2023-05-14T01:10:55;7.60;;;6.70;;
17345;SDS011;8790;53.590;10.002;2023-05-14T01:13:35;7.53;;;6.80;;
17345;SDS011;8790;53.590;10.002;2023-05-14T01:16:13;8.47;;;6.97;;
17345;SDS011;8790;53.590;10.002;2023-05-14T01:18:49;7.93;;;6.90;;
17345;SDS011;8790;53.590;10.002;2023-05-14T01:21:31;7.27;;;6.63;;
17345;SDS011;8790;53.590;10.002;2023-05-14T01:24:06;10.73;;;6.97;;
17345;SDS011;8790;53.590;10.002;2023-05-14T01:26:39;8.70;;;6.50;;
17345;SDS011;8790;53.590;10.002;2023-05-14T01:29:12;8.47;;;6.80;;
17345;SDS011;8790;53.590;10.002;2023-05-14T01:31:50;10.47;;;6.80;;
17345;SDS011;8790;53.590;10.002;2023-05-14T01:34:25;9.37;;;7.10;;
17345;SDS011;8790;53.590;10.002;2023-05-14T01:37:01;8.93;;;6.73;;
17345;SDS011;8790;53.590;10.002;2023-05-14T01:39:35;10.37;;;7.00;;
17345;SDS011;8790;53.590;10.002;2023-05-14T01:42:08;7.40;;;6.67;;
17345;SDS011;8790;53.590;10.002;2023-05-14T01:44:40;7.33;;;6.63;;
17345;SDS011;8790;53.590;10.002;2023-05-14T01:47:12;7.33;;;6.63;;
17345;SDS011;8790;53.590;10.002;2023-05-14T01:49:44;9.67;;;6.67;;
17345;SDS011;8790;53.590;10.002;2023-05-14T01:52:17;7.80;;;7.00;;
17345;SDS011;8790;53.590;10.002;2023-05-14T01:54:50;10.67;;;7.27;;
17345;SDS011;8790;53.590;10.002;2023-05-14T01:57:22;7.90;;;7.10;;
17345;SDS011;8790;53.590;10.002;2023-05-14T01:59:53;8.03;;;6.93;;
17345;SDS011;8790;53.590;10.002;2023-05-14T02:02:25;7.50;;;6.70;;
17345;SDS011;8790;53.590;10.002;2023-05-14T02:04:57;7.73;;;7.03;;
17345;SDS011;8790;53.590;10.002;2023-05-14T02:07:30;7.80;;;7.00;;
17345;SDS011;8790;53.590;10.002;2023-05-14T02:10:01;8.17;;;6.80;;
17345;SDS011;8790;53.590;10.002;2023-05-14T02:12:33;7.40;;;6.60;;
17345;SDS011;8790;53.590;10.002;2023-05-14T02:15:05;7.43;;;6.70;;
17345;SDS011;8790;53.590;10.002;2023-05-14T02:17:39;8.40;;;6.90;;
17345;SDS011;8790;53.590;10.002;2023-05-14T02:20:14;7.37;;;6.53;;
17345;SDS011;8790;53.590;10.002;2023-05-14T02:22:47;7.23;;;6.43;;
17345;SDS011;8790;53.590;10.002;2023-05-14T02:25:19;8.77;;;6.87;;
17345;SDS011;8790;53.590;10.002;2023-05-14T02:27:51;7.50;;;6.70;;
17345;SDS011;8790;53.590;10.002;2023-05-14T02:30:22;8.03;;;6.90;;
17345;SDS011;8790;53.590;10.002;2023-05-14T02:32:54;7.13;;;6.40;;
17345;SDS011;8790;53.590;10.002;2023-05-14T02:35:26;10.70;;;7.07;;
17345;SDS011;8790;53.590;10.002;2023-05-14T02:37:59;9.67;;;6.67;;
17345;SDS011;8790;53.590;10.002;2023-05-14T02:40:31;8.63;;;6.93;;
17345;SDS011;8790;53.590;10.002;2023-05-14T02:43:03;7.73;;;6.97;;
17345;SDS011;8790;53.590;10.002;2023-05-14T02:45:35;7.30;;;6.60;;
17345;SDS011;8790;53.590;10.002;2023-05-14T02:48:07;7.80;;;7.00;;
17345;SDS011;8790;53.590;10.002;2023-05-14T02:50:39;7.90;;;6.93;;
17345;SDS011;8790;53.590;10.002;2023-05-14T02:53:12;8.10;;;6.97;;
17345;SDS011;8790;53.590;10.002;2023-05-14T02:55:44;7.70;;;6.93;;
17345;SDS011;8790;53.590;10.002;2023-05-14T02:58:15;7.60;;;6.70;;
17345;SDS011;8790;53.590;10.002;2023-05-14T03:00:48;7.40;;;6.70;;
17345;SDS011;8790;53.590;10.002;2023-05-14T03:03:20;7.30;;;6.60;;
17345;SDS011;8790;53.590;10.002;2023-05-14T03:05:51;7.40;;;6.70;;
17345;SDS011;8790;53.590;10.002;2023-05-14T03:08:25;9.37;;;7.07;;
17345;SDS011;8790;53.590;10.002;2023-05-14T03:10:57;9.07;;;7.00;;
17345;SDS011;8790;53.590;10.002;2023-05-14T03:13:28;7.77;;;7.07;;
17345;SDS011;8790;53.590;10.002;2023-05-14T03:16:00;9.30;;;7.40;;
17345;SDS011;8790;53.590;10.002;2023-05-14T03:18:32;7.53;;;6.83;;
17345;SDS011;8790;53.590;10.002;2023-05-14T03:21:05;8.27;;;7.47;;
17345;SDS011;8790;53.590;10.002;2023-05-14T03:23:39;8.40;;;7.60;;
17345;SDS011;8790;53.590;10.002;2023-05-14T03:26:11;8.23;;;7.50;;
17345;SDS011;8790;53.590;10.002;2023-05-14T03:28:43;8.80;;;7.90;;
17345;SDS011;8790;53.590;10.002;2023-05-14T03:31:16;8.77;;;7.40;;
17345;SDS011;8790;53.590;10.002;2023-05-14T03:33:47;8.13;;;7.30;;
17345;SDS011;8790;53.590;10.002;2023-05-14T03:36:20;8.13;;;7.33;;
17345;SDS011;8790;53.590;10.002;2023-05-14T03:38:53;7.67;;;6.97;;
17345;SDS011;8790;53.590;10.002;2023-05-14T03:41:24;8.13;;;7.37;;
17345;SDS011;8790;53.590;10.002;2023-05-14T03:43:56;7.70;;;6.93;;
17345;SDS011;8790;53.590;10.002;2023-05-14T03:46:28;7.97;;;7.27;;
17345;SDS011;8790;53.590;10.002;2023-05-14T03:49:00;7.77;;;7.07;;
17345;SDS011;8790;53.590;10.002;2023-05-14T03:51:31;8.83;;;7.67;;
17345;SDS011;8790;53.590;10.002;2023-05-14T03:54:05;9.43;;;7.17;;
17345;SDS011;8790;53.590;10.002;2023-05-14T03:56:37;8.13;;;7.33;;
17345;SDS011;8790;53.590;10.002;2023-05-14T03:59:09;9.73;;;7.30;;
17345;SDS011;8790;53.590;10.002;2023-05-14T04:01:40;7.80;;;7.00;;
17345;SDS011;8790;53.590;10.002;2023-05-14T04:04:12;8.40;;;7.70;;
17345;SDS011;8790;53.590;10.002;2023-05-14T04:06:43;8.17;;;7.37;;
17345;SDS011;8790;53.590;10.002;2023-05-14T04:09:16;9.50;;;7.20;;
17345;SDS011;8790;53.590;10.002;2023-05-14T04:11:48;8.20;;;7.43;;
17345;SDS011;8790;53.590;10.002;2023-05-14T04:14:20;8.73;;;7.53;;
17345;SDS011;8790;53.590;10.002;2023-05-14T04:16:52;7.77;;;6.97;;
17345;SDS011;8790;53.590;10.002;2023-05-14T04:19:24;9.23;;;7.97;;
17345;SDS011;8790;53.590;10.002;2023-05-14T04:21:56;8.87;;;7.37;;
17345;SDS011;8790;53.590;10.002;2023-05-14T04:24:29;8.30;;;7.60;;
17345;SDS011;8790;53.590;10.002;2023-05-14T04:27:01;8.57;;;7.77;;
17345;SDS011;8790;53.590;10.002;2023-05-14T04:29:33;10.50;;;8.13;;
17345;SDS011;8790;53.590;10.002;2023-05-14T04:32:05;8.80;;;7.50;;
17345;SDS011;8790;53.590;10.002;2023-05-14T04:34:37;7.87;;;7.17;;
17345;SDS011;8790;53.590;10.002;2023-05-14T04:37:09;7.93;;;7.23;;
17345;SDS011;8790;53.590;10.002;2023-05-14T04:39:42;8.10;;;7.30;;
17345;SDS011;8790;53.590;10.002;2023-05-14T04:42:14;8.87;;;7.90;;
17345;SDS011;8790;53.590;10.002;2023-05-14T04:44:45;8.00;;;7.23;;
17345;SDS011;8790;53.590;10.002;2023-05-14T04:47:17;8.20;;;7.40;;
17345;SDS011;8790;53.590;10.002;2023-05-14T04:49:50;8.37;;;7.43;;
17345;SDS011;8790;53.590;10.002;2023-05-14T04:52:21;8.50;;;7.53;;
17345;SDS011;8790;53.590;10.002;2023-05-14T04:54:54;8.90;;;7.50;;
17345;SDS011;8790;53.590;10.002;2023-05-14T04:57:26;8.10;;;7.30;;
17345;SDS011;8790;53.590;10.002;2023-05-14T04:59:58;9.03;;;7.93;;
17345;SDS011;8790;53.590;10.002;2023-05-14T05:02:29;8.20;;;7.40;;
17345;SDS011;8790;53.590;10.002;2023-05-14T05:05:01;10.10;;;7.83;;
17345;SDS011;8790;53.590;10.002;2023-05-14T05:07:33;9.83;;;7.80;;
17345;SDS011;8790;53.590;10.002;2023-05-14T05:10:07;7.93;;;7.23;;
17345;SDS011;8790;53.590;10.002;2023-05-14T05:12:39;8.10;;;7.30;;
17345;SDS011;8790;53.590;10.002;2023-05-14T05:15:11;8.37;;;7.50;;
17345;SDS011;8790;53.590;10.002;2023-05-14T05:17:43;8.67;;;7.13;;
17345;SDS011;8790;53.590;10.002;2023-05-14T05:20:15;9.23;;;8.07;;
17345;SDS011;8790;53.590;10.002;2023-05-14T05:22:47;8.60;;;7.40;;
17345;SDS011;8790;53.590;10.002;2023-05-14T05:25:20;8.00;;;7.30;;
17345;SDS011;8790;53.590;10.002;2023-05-14T05:27:52;8.53;;;7.60;;
17345;SDS011;8790;53.590;10.002;2023-05-14T05:30:23;9.63;;;7.77;;
17345;SDS011;8790;53.590;10.002;2023-05-14T05:32:55;8.13;;;7.43;;
17345;SDS011;8790;53.590;10.002;2023-05-14T05:35:27;8.77;;;7.03;;
17345;SDS011;8790;53.590;10.002;2023-05-14T05:37:59;8.33;;;7.43;;
17345;SDS011;8790;53.590;10.002;2023-05-14T05:40:32;8.90;;;7.67;;
17345;SDS011;8790;53.590;10.002;2023-05-14T05:43:03;7.80;;;7.10;;
17345;SDS011;8790;53.590;10.002;2023-05-14T05:45:35;8.77;;;7.57;;
17345;SDS011;8790;53.590;10.002;2023-05-14T05:48:07;8.23;;;7.43;;
17345;SDS011;8790;53.590;10.002;2023-05-14T05:50:38;9.47;;;7.17;;
17345;SDS011;8790;53.590;10.002;2023-05-14T05:53:10;8.37;;;7.10;;
17345;SDS011;8790;53.590;10.002;2023-05-14T05:55:43;8.77;;;7.20;;
17345;SDS011;8790;53.590;10.002;2023-05-14T05:58:15;7.77;;;7.07;;
17345;SDS011;8790;53.590;10.002;2023-05-14T06:00:47;9.13;;;7.70;;
17345;SDS011;8790;53.590;10.002;2023-05-14T06:03:18;7.60;;;6.90;;
17345;SDS011;8790;53.590;10.002;2023-05-14T06:05:51;8.20;;;7.40;;
17345;SDS011;8790;53.590;10.002;2023-05-14T06:08:22;8.30;;;7.33;;
17345;SDS011;8790;53.590;10.002;2023-05-14T06:10:55;7.97;;;6.97;;
17345;SDS011;8790;53.590;10.002;2023-05-14T06:13:27;8.47;;;7.60;;
17345;SDS011;8790;53.590;10.002;2023-05-14T06:15:59;10.27;;;7.20;;
17345;SDS011;8790;53.590;10.002;2023-05-14T06:18:30;7.40;;;6.70;;
17345;SDS011;8790;53.590;10.002;2023-05-14T06:21:02;7.47;;;6.87;;
17345;SDS011;8790;53.590;10.002;2023-05-14T06:23:34;7.40;;;6.70;;
17345;SDS011;8790;53.590;10.002;2023-05-14T06:26:07;7.60;;;6.90;;
17345;SDS011;8790;53.590;10.002;2023-05-14T06:28:39;7.50;;;6.70;;
17345;SDS011;8790;53.590;10.002;2023-05-14T06:31:10;7.40;;;6.70;;
17345;SDS011;8790;53.590;10.002;2023-05-14T06:33:42;8.67;;;6.30;;
17345;SDS011;8790;53.590;10.002;2023-05-14T06:36:14;7.17;;;6.47;;
17345;SDS011;8790;53.590;10.002;2023-05-14T06:38:46;7.47;;;6.70;;
17345;SDS011;8790;53.590;10.002;2023-05-14T06:41:19;8.43;;;6.30;;
17345;SDS011;8790;53.590;10.002;2023-05-14T06:43:51;7.10;;;6.33;;
17345;SDS011;8790;53.590;10.002;2023-05-14T06:46:24;6.83;;;6.23;;
17345;SDS011;8790;53.590;10.002;2023-05-14T06:48:56;6.83;;;6.13;;
17345;SDS011;8790;53.590;10.002;2023-05-14T06:51:27;7.17;;;6.27;;
17345;SDS011;8790;53.590;10.002;2023-05-14T06:53:59;7.00;;;6.27;;
17345;SDS011;8790;53.590;10.002;2023-05-14T06:56:33;6.83;;;6.13;;
17345;SDS011;8790;53.590;10.002;2023-05-14T06:59:04;6.50;;;5.90;;
17345;SDS011;8790;53.590;10.002;2023-05-14T07:01:36;6.23;;;5.63;;
17345;SDS011;8790;53.590;10.002;2023-05-14T07:04:08;6.40;;;5.80;;
17345;SDS011;8790;53.590;10.002;2023-05-14T07:06:39;5.90;;;5.40;;
17345;SDS011;8790;53.590;10.002;2023-05-14T07:09:11;6.27;;;5.77;;
17345;SDS011;8790;53.590;10.002;2023-05-14T07:11:44;6.77;;;5.27;;
17345;SDS011;8790;53.590;10.002;2023-05-14T07:14:16;5.55;;;5.05;;
17345;SDS011;8790;53.590;10.002;2023-05-14T07:16:48;5.93;;;5.43;;
17345;SDS011;8790;53.590;10.002;2023-05-14T07:19:19;6.13;;;5.35;;
17345;SDS011;8790;53.590;10.002;2023-05-14T07:21:51;5.37;;;4.93;;
17345;SDS011;8790;53.590;10.002;2023-05-14T07:24:23;5.80;;;5.22;;
17345;SDS011;8790;53.590;10.002;2023-05-14T07:26:56;5.78;;;5.22;;
17345;SDS011;8790;53.590;10.002;2023-05-14T07:29:28;7.20;;;5.30;;
17345;SDS011;8790;53.590;10.002;2023-05-14T07:32:00;5.38;;;4.93;;
17345;SDS011;8790;53.590;10.002;2023-05-14T07:34:32;6.07;;;5.10;;
17345;SDS011;8790;53.590;10.002;2023-05-14T07:37:03;6.00;;;5.28;;
17345;SDS011;8790;53.590;10.002;2023-05-14T07:39:35;6.10;;;5.47;;
17345;SDS011;8790;53.590;10.002;2023-05-14T07:42:08;5.43;;;4.93;;
17345;SDS011;8790;53.590;10.002;2023-05-14T07:44:40;5.90;;;5.18;;
17345;SDS011;8790;53.590;10.002;2023-05-14T07:47:12;6.40;;;4.97;;
17345;SDS011;8790;53.590;10.002;2023-05-14T07:49:43;5.57;;;5.00;;
17345;SDS011;8790;53.590;10.002;2023-05-14T07:52:15;5.43;;;4.63;;
17345;SDS011;8790;53.590;10.002;2023-05-14T07:54:47;5.93;;;5.30;;
17345;SDS011;8790;53.590;10.002;2023-05-14T07:57:21;7.78;;;5.90;;
17345;SDS011;8790;53.590;10.002;2023-05-14T07:59:53;6.20;;;5.03;;
17345;SDS011;8790;53.590;10.002;2023-05-14T08:02:25;5.97;;;4.78;;
17345;SDS011;8790;53.590;10.002;2023-05-14T08:04:57;6.55;;;4.60;;
17345;SDS011;8790;53.590;10.002;2023-05-14T08:07:29;5.22;;;4.82;;
17345;SDS011;8790;53.590;10.002;2023-05-14T08:10:01;7.35;;;5.60;;
17345;SDS011;8790;53.590;10.002;2023-05-14T08:12:34;5.43;;;4.85;;
17345;SDS011;8790;53.590;10.002;2023-05-14T08:15:06;7.65;;;4.75;;
17345;SDS011;8790;53.590;10.002;2023-05-14T08:17:39;8.95;;;4.57;;
17345;SDS011;8790;53.590;10.002;2023-05-14T08:20:11;5.15;;;4.70;;
17345;SDS011;8790;53.590;10.002;2023-05-14T08:22:42;7.97;;;4.70;;
17345;SDS011;8790;53.590;10.002;2023-05-14T08:25:14;6.00;;;5.40;;
17345;SDS011;8790;53.590;10.002;2023-05-14T08:27:47;5.85;;;4.65;;
17345;SDS011;8790;53.590;10.002;2023-05-14T08:30:19;6.18;;;4.88;;
17345;SDS011;8790;53.590;10.002;2023-05-14T08:32:51;6.32;;;4.30;;
17345;SDS011;8790;53.590;10.002;2023-05-14T08:35:23;4.72;;;4.32;;
17345;SDS011;8790;53.590;10.002;2023-05-14T08:37:54;5.57;;;4.60;;
17345;SDS011;8790;53.590;10.002;2023-05-14T08:40:27;5.00;;;4.50;;
17345;SDS011;8790;53.590;10.002;2023-05-14T08:43:00;5.03;;;4.53;;
17345;SDS011;8790;53.590;10.002;2023-05-14T08:45:32;5.50;;;4.53;;
17345;SDS011;8790;53.590;10.002;2023-05-14T08:48:06;6.32;;;4.57;;
17345;SDS011;8790;53.590;10.002;2023-05-14T08:50:39;4.97;;;4.47;;
17345;SDS011;8790;53.590;10.002;2023-05-14T08:53:12;5.05;;;4.43;;
17345;SDS011;8790;53.590;10.002;2023-05-14T08:55:44;5.55;;;4.05;;
17345;SDS011;8790;53.590;10.002;2023-05-14T08:58:19;5.15;;;4.38;;
17345;SDS011;8790;53.590;10.002;2023-05-14T09:00:52;4.78;;;4.20;;
17345;SDS011;8790;53.590;10.002;2023-05-14T09:03:24;5.43;;;4.22;;
17345;SDS011;8790;53.590;10.002;2023-05-14T09:05:55;6.45;;;4.20;;
17345;SDS011;8790;53.590;10.002;2023-05-14T09:08:28;5.20;;;3.97;;
17345;SDS011;8790;53.590;10.002;2023-05-14T09:10:59;4.60;;;3.83;;
17345;SDS011;8790;53.590;10.002;2023-05-14T09:13:33;5.03;;;4.10;;
17345;SDS011;8790;53.590;10.002;2023-05-14T09:16:08;5.05;;;4.00;;
17345;SDS011;8790;53.590;10.002;2023-05-14T09:18:41;5.68;;;3.92;;
17345;SDS011;8790;53.590;10.002;2023-05-14T09:21:14;4.07;;;3.65;;
17345;SDS011;8790;53.590;10.002;2023-05-14T09:23:46;5.63;;;4.00;;
17345;SDS011;8790;53.590;10.002;2023-05-14T09:26:21;7.50;;;4.13;;
17345;SDS011;8790;53.590;10.002;2023-05-14T09:28:57;4.70;;;3.60;;
17345;SDS011;8790;53.590;10.002;2023-05-14T09:31:31;4.57;;;3.70;;
17345;SDS011;8790;53.590;10.002;2023-05-14T09:34:04;5.88;;;3.97;;
17345;SDS011;8790;53.590;10.002;2023-05-14T09:36:36;5.03;;;4.25;;
17345;SDS011;8790;53.590;10.002;2023-05-14T09:39:08;4.80;;;3.78;;
17345;SDS011;8790;53.590;10.002;2023-05-14T09:41:39;6.47;;;3.90;;
17345;SDS011;8790;53.590;10.002;2023-05-14T09:44:13;4.40;;;3.90;;
17345;SDS011;8790;53.590;10.002;2023-05-14T09:46:45;5.85;;;4.35;;
17345;SDS011;8790;53.590;10.002;2023-05-14T09:49:18;6.38;;;3.78;;
17345;SDS011;8790;53.590;10.002;2023-05-14T09:51:50;5.20;;;3.80;;
17345;SDS011;8790;53.590;10.002;2023-05-14T09:54:22;5.80;;;3.70;;
17345;SDS011;8790;53.590;10.002;2023-05-14T09:56:55;3.95;;;3.55;;
17345;SDS011;8790;53.590;10.002;2023-05-14T09:59:28;5.28;;;3.70;;
17345;SDS011;8790;53.590;10.002;2023-05-14T10:02:00;4.20;;;3.53;;
17345;SDS011;8790;53.590;10.002;2023-05-14T10:04:33;4.40;;;4.00;;
17345;SDS011;8790;53.590;10.002;2023-05-14T10:07:07;8.65;;;4.10;;
17345;SDS011;8790;53.590;10.002;2023-05-14T10:09:39;5.75;;;3.55;;
17345;SDS011;8790;53.590;10.002;2023-05-14T10:12:13;3.78;;;3.30;;
17345;SDS011;8790;53.590;10.002;2023-05-14T10:14:51;4.85;;;3.45;;
17345;SDS011;8790;53.590;10.002;2023-05-14T10:17:25;5.80;;;3.60;;
17345;SDS011;8790;53.590;10.002;2023-05-14T10:20:01;4.47;;;3.55;;
17345;SDS011;8790;53.590;10.002;2023-05-14T10:22:37;7.05;;;3.60;;
17345;SDS011;8790;53.590;10.002;2023-05-14T10:25:09;3.58;;;3.30;;
17345;SDS011;8790;53.590;10.002;2023-05-14T10:27:41;4.03;;;3.70;;
17345;SDS011;8790;53.590;10.002;2023-05-14T10:30:15;5.22;;;3.90;;
17345;SDS011;8790;53.590;10.002;2023-05-14T10:32:46;3.97;;;3.47;;
17345;SDS011;8790;53.590;10.002;2023-05-14T10:35:18;5.28;;;3.70;;
17345;SDS011;8790;53.590;10.002;2023-05-14T10:37:54;4.03;;;3.60;;
17345;SDS011;8790;53.590;10.002;2023-05-14T10:40:27;4.03;;;3.63;;
17345;SDS011;8790;53.590;10.002;2023-05-14T10:42:58;5.13;;;4.63;;
17345;SDS011;8790;53.590;10.002;2023-05-14T10:45:32;4.10;;;3.58;;
17345;SDS011;8790;53.590;10.002;2023-05-14T10:48:03;4.68;;;3.65;;
17345;SDS011;8790;53.590;10.002;2023-05-14T10:50:36;4.30;;;3.38;;
17345;SDS011;8790;53.590;10.002;2023-05-14T10:53:09;4.10;;;3.80;;
17345;SDS011;8790;53.590;10.002;2023-05-14T10:55:42;3.70;;;3.40;;
17345;SDS011;8790;53.590;10.002;2023-05-14T10:58:15;4.32;;;3.92;;
17345;SDS011;8790;53.590;10.002;2023-05-14T11:00:49;4.85;;;3.65;;
17345;SDS011;8790;53.590;10.002;2023-05-14T11:03:27;4.50;;;3.72;;
17345;SDS011;8790;53.590;10.002;2023-05-14T11:05:59;4.07;;;3.50;;
17345;SDS011;8790;53.590;10.002;2023-05-14T11:08:34;5.32;;;4.00;;
17345;SDS011;8790;53.590;10.002;2023-05-14T11:11:08;5.68;;;3.80;;
17345;SDS011;8790;53.590;10.002;2023-05-14T11:13:39;4.95;;;3.83;;
17345;SDS011;8790;53.590;10.002;2023-05-14T11:16:13;5.03;;;4.10;;
17345;SDS011;8790;53.590;10.002;2023-05-14T11:18:47;6.72;;;4.35;;
17345;SDS011;8790;53.590;10.002;2023-05-14T11:21:23;5.00;;;3.92;;
17345;SDS011;8790;53.590;10.002;2023-05-14T11:23:55;4.88;;;4.03;;
17345;SDS011;8790;53.590;10.002;2023-05-14T11:26:27;5.18;;;3.80;;
17345;SDS011;8790;53.590;10.002;2023-05-14T11:28:59;4.65;;;4.18;;
17345;SDS011;8790;53.590;10.002;2023-05-14T11:31:32;4.90;;;4.18;;
17345;SDS011;8790;53.590;10.002;2023-05-14T11:34:05;6.43;;;4.10;;
17345;SDS011;8790;53.590;10.002;2023-05-14T11:36:37;4.18;;;3.83;;
17345;SDS011;8790;53.590;10.002;2023-05-14T11:39:16;4.63;;;3.80;;
17345;SDS011;8790;53.590;10.002;2023-05-14T11:41:48;5.50;;;4.43;;
17345;SDS011;8790;53.590;10.002;2023-05-14T11:44:19;6.13;;;4.07;;
17345;SDS011;8790;53.590;10.002;2023-05-14T11:46:54;7.05;;;4.00;;
17345;SDS011;8790;53.590;10.002;2023-05-14T11:49:26;4.43;;;4.03;;
17345;SDS011;8790;53.590;10.002;2023-05-14T11:51:59;6.10;;;3.83;;
17345;SDS011;8790;53.590;10.002;2023-05-14T11:54:32;4.25;;;3.85;;
17345;SDS011;8790;53.590;10.002;2023-05-14T11:57:08;4.22;;;3.80;;
17345;SDS011;8790;53.590;10.002;2023-05-14T11:59:41;4.20;;;3.80;;
17345;SDS011;8790;53.590;10.002;2023-05-14T12:02:15;5.78;;;4.15;;
17345;SDS011;8790;53.590;10.002;2023-05-14T12:04:49;4.57;;;4.18;;
17345;SDS011;8790;53.590;10.002;2023-05-14T12:07:21;4.45;;;3.97;;
17345;SDS011;8790;53.590;10.002;2023-05-14T12:09:54;6.40;;;3.75;;
17345;SDS011;8790;53.590;10.002;2023-05-14T12:12:33;5.95;;;3.83;;
17345;SDS011;8790;53.590;10.002;2023-05-14T12:15:09;5.00;;;4.25;;
17345;SDS011;8790;53.590;10.002;2023-05-14T12:17:42;6.88;;;4.10;;
17345;SDS011;8790;53.590;10.002;2023-05-14T12:20:19;4.72;;;4.00;;
17345;SDS011;8790;53.590;10.002;2023-05-14T12:22:55;5.50;;;4.38;;
17345;SDS011;8790;53.590;10.002;2023-05-14T12:25:26;4.80;;;3.88;;
17345;SDS011;8790;53.590;10.002;2023-05-14T12:27:59;6.13;;;4.25;;
17345;SDS011;8790;53.590;10.002;2023-05-14T12:30:35;5.60;;;4.10;;
17345;SDS011;8790;53.590;10.002;2023-05-14T12:33:09;4.63;;;4.22;;
17345;SDS011;8790;53.590;10.002;2023-05-14T12:35:41;4.85;;;4.32;;
17345;SDS011;8790;53.590;10.002;2023-05-14T12:38:13;8.30;;;4.28;;
17345;SDS011;8790;53.590;10.002;2023-05-14T12:40:44;5.10;;;4.13;;
17345;SDS011;8790;53.590;10.002;2023-05-14T12:43:16;4.40;;;4.00;;
17345;SDS011;8790;53.590;10.002;2023-05-14T12:45:48;5.43;;;4.25;;
17345;SDS011;8790;53.590;10.002;2023-05-14T12:48:21;4.40;;;4.00;;
17345;SDS011;8790;53.590;10.002;2023-05-14T12:50:53;4.28;;;3.97;;
17345;SDS011;8790;53.590;10.002;2023-05-14T12:53:25;9.05;;;4.20;;
17345;SDS011;8790;53.590;10.002;2023-05-14T12:55:56;5.57;;;4.30;;
17345;SDS011;8790;53.590;10.002;2023-05-14T12:58:28;5.90;;;4.95;;
17345;SDS011;8790;53.590;10.002;2023-05-14T13:01:00;4.78;;;4.38;;
17345;SDS011;8790;53.590;10.002;2023-05-14T13:03:34;4.95;;;4.38;;
17345;SDS011;8790;53.590;10.002;2023-05-14T13:06:06;4.70;;;4.30;;
17345;SDS011;8790;53.590;10.002;2023-05-14T13:08:38;4.93;;;4.22;;
17345;SDS011;8790;53.590;10.002;2023-05-14T13:11:10;5.30;;;4.28;;
17345;SDS011;8790;53.590;10.002;2023-05-14T13:13:41;5.82;;;4.30;;
17345;SDS011;8790;53.590;10.002;2023-05-14T13:16:13;6.10;;;4.43;;
17345;SDS011;8790;53.590;10.002;2023-05-14T13:18:47;7.10;;;4.60;;
17345;SDS011;8790;53.590;10.002;2023-05-14T13:21:19;4.53;;;4.13;;
17345;SDS011;8790;53.590;10.002;2023-05-14T13:23:51;5.93;;;4.30;;
17345;SDS011;8790;53.590;10.002;2023-05-14T13:26:23;5.13;;;4.00;;
17345;SDS011;8790;53.590;10.002;2023-05-14T13:28:55;4.88;;;4.10;;
17345;SDS011;8790;53.590;10.002;2023-05-14T13:31:27;4.70;;;4.20;;
17345;SDS011;8790;53.590;10.002;2023-05-14T13:34:00;4.93;;;4.00;;
17345;SDS011;8790;53.590;10.002;2023-05-14T13:36:32;4.70;;;4.25;;
17345;SDS011;8790;53.590;10.002;2023-05-14T13:39:08;7.97;;;4.13;;
17345;SDS011;8790;53.590;10.002;2023-05-14T13:41:40;6.35;;;4.22;;
17345;SDS011;8790;53.590;10.002;2023-05-14T13:44:12;5.00;;;4.60;;
17345;SDS011;8790;53.590;10.002;2023-05-14T13:46:44;4.53;;;4.10;;
17345;SDS011;8790;53.590;10.002;2023-05-14T13:49:17;5.88;;;4.40;;
17345;SDS011;8790;53.590;10.002;2023-05-14T13:51:49;6.35;;;4.38;;
17345;SDS011;8790;53.590;10.002;2023-05-14T13:54:20;4.97;;;4.40;;
17345;SDS011;8790;53.590;10.002;2023-05-14T13:56:52;5.75;;;5.20;;
17345;SDS011;8790;53.590;10.002;2023-05-14T13:59:24;8.20;;;4.57;;
17345;SDS011;8790;53.590;10.002;2023-05-14T14:01:56;4.78;;;4.32;;
17345;SDS011;8790;53.590;10.002;2023-05-14T14:04:29;6.07;;;4.82;;
17345;SDS011;8790;53.590;10.002;2023-05-14T14:07:01;6.00;;;3.90;;
17345;SDS011;8790;53.590;10.002;2023-05-14T14:09:33;5.75;;;3.90;;
17345;SDS011;8790;53.590;10.002;2023-05-14T14:12:06;7.15;;;4.00;;
17345;SDS011;8790;53.590;10.002;2023-05-14T14:14:38;4.93;;;4.43;;
17345;SDS011;8790;53.590;10.002;2023-05-14T14:17:10;4.93;;;4.32;;
17345;SDS011;8790;53.590;10.002;2023-05-14T14:19:43;4.72;;;3.83;;
17345;SDS011;8790;53.590;10.002;2023-05-14T14:22:15;5.20;;;4.70;;
17345;SDS011;8790;53.590;10.002;2023-05-14T14:24:47;5.40;;;4.13;;
17345;SDS011;8790;53.590;10.002;2023-05-14T14:27:19;4.88;;;4.25;;
17345;SDS011;8790;53.590;10.002;2023-05-14T14:29:51;5.95;;;5.32;;
17345;SDS011;8790;53.590;10.002;2023-05-14T14:32:23;6.03;;;5.13;;
17345;SDS011;8790;53.590;10.002;2023-05-14T14:34:56;4.80;;;4.40;;
17345;SDS011;8790;53.590;10.002;2023-05-14T14:37:27;6.13;;;4.90;;
17345;SDS011;8790;53.590;10.002;2023-05-14T14:39:59;6.00;;;4.95;;
17345;SDS011;8790;53.590;10.002;2023-05-14T14:42:31;5.45;;;4.95;;
17345;SDS011;8790;53.590;10.002;2023-05-14T14:45:03;6.55;;;4.97;;
17345;SDS011;8790;53.590;10.002;2023-05-14T14:47:35;5.32;;;4.80;;
17345;SDS011;8790;53.590;10.002;2023-05-14T14:50:09;6.45;;;5.07;;
17345;SDS011;8790;53.590;10.002;2023-05-14T14:52:41;6.55;;;4.88;;
17345;SDS011;8790;53.590;10.002;2023-05-14T14:55:14;5.15;;;4.53;;
17345;SDS011;8790;53.590;10.002;2023-05-14T14:57:46;6.80;;;5.00;;
17345;SDS011;8790;53.590;10.002;2023-05-14T15:00:17;5.30;;;4.38;;
17345;SDS011;8790;53.590;10.002;2023-05-14T15:02:50;4.57;;;4.15;;
17345;SDS011;8790;53.590;10.002;2023-05-14T15:05:23;4.63;;;4.22;;
17345;SDS011;8790;53.590;10.002;2023-05-14T15:07:54;5.60;;;4.93;;
17345;SDS011;8790;53.590;10.002;2023-05-14T15:10:26;5.55;;;5.05;;
17345;SDS011;8790;53.590;10.002;2023-05-14T15:12:58;7.35;;;4.90;;
17345;SDS011;8790;53.590;10.002;2023-05-14T15:15:30;9.07;;;5.47;;
17345;SDS011;8790;53.590;10.002;2023-05-14T15:18:03;7.60;;;4.75;;
17345;SDS011;8790;53.590;10.002;2023-05-14T15:20:36;6.18;;;4.70;;